createdAt,value
2023-04-09T00:01:02.069Z,11.54
2023-04-09T00:03:29.822Z,11.49
2023-04-09T00:05:57.564Z,11.67
2023-04-09T00:08:25.469Z,11.48
2023-04-09T00:10:53.558Z,10.90
2023-04-09T00:13:35.592Z,10.87
2023-04-09T00:16:08.075Z,11.13
2023-04-09T00:18:35.814Z,10.76
2023-04-09T00:21:03.594Z,10.49
2023-04-09T00:23:31.317Z,10.89
2023-04-09T00:25:58.991Z,10.90
2023-04-09T00:28:26.747Z,10.63
2023-04-09T00:30:54.441Z,10.68
2023-04-09T00:33:23.526Z,10.92
2023-04-09T00:35:51.256Z,10.64
2023-04-09T00:38:19.012Z,10.78
2023-04-09T00:40:50.042Z,11.10
2023-04-09T00:43:17.918Z,10.70
2023-04-09T00:45:46.051Z,10.94
2023-04-09T00:48:14.691Z,11.03
2023-04-09T00:50:43.918Z,11.02
2023-04-09T00:53:12.281Z,10.91
2023-04-09T00:55:41.240Z,10.79
2023-04-09T00:58:09.478Z,11.02
2023-04-09T01:00:37.174Z,11.12
2023-04-09T01:03:06.527Z,11.08
2023-04-09T01:05:39.979Z,10.91
2023-04-09T01:08:15.487Z,10.50
2023-04-09T01:10:44.479Z,10.36
2023-04-09T01:13:16.710Z,10.46
2023-04-09T01:15:48.362Z,10.42
2023-04-09T01:18:22.041Z,10.55
2023-04-09T01:20:56.580Z,10.56
2023-04-09T01:23:33.002Z,10.47
2023-04-09T01:26:05.896Z,10.57
2023-04-09T01:28:36.544Z,10.66
2023-04-09T01:31:09.192Z,10.63
2023-04-09T01:33:38.151Z,10.85
2023-04-09T01:36:06.672Z,10.68
2023-04-09T01:38:34.847Z,10.63
2023-04-09T01:41:03.059Z,10.58
2023-04-09T01:43:31.700Z,10.66
2023-04-09T01:46:01.674Z,10.63
2023-04-09T01:48:30.551Z,11.08
2023-04-09T01:50:59.099Z,11.12
2023-04-09T01:53:28.402Z,11.54
2023-04-09T01:55:56.716Z,11.73
2023-04-09T01:58:25.862Z,11.73
2023-04-09T02:00:57.325Z,11.49
2023-04-09T02:03:28.192Z,11.59
2023-04-09T02:05:59.679Z,11.43
2023-04-09T02:08:30.336Z,11.62
2023-04-09T02:11:00.271Z,11.74
2023-04-09T02:13:28.587Z,11.59
2023-04-09T02:15:57.690Z,11.67
2023-04-09T02:18:28.691Z,11.56
2023-04-09T02:20:57.150Z,11.67
2023-04-09T02:23:25.508Z,11.20
2023-04-09T02:25:54.234Z,11.33
2023-04-09T02:28:22.016Z,10.77
2023-04-09T02:30:49.756Z,11.05
2023-04-09T02:33:17.512Z,11.11
2023-04-09T02:35:46.680Z,11.00
2023-04-09T02:38:15.990Z,11.11
2023-04-09T02:40:44.191Z,11.10
2023-04-09T02:43:12.045Z,11.40
2023-04-09T02:45:39.746Z,11.66
2023-04-09T02:48:07.592Z,11.44
2023-04-09T02:50:35.274Z,11.47
2023-04-09T02:53:04.446Z,11.42
2023-04-09T02:55:32.416Z,11.38
2023-04-09T02:58:00.202Z,11.28
2023-04-09T03:00:28.177Z,11.26
2023-04-09T03:02:56.070Z,10.98
2023-04-09T03:05:24.375Z,11.18
2023-04-09T03:07:52.769Z,10.85
2023-04-09T03:10:21.893Z,11.14
2023-04-09T03:12:49.651Z,11.31
2023-04-09T03:15:17.522Z,11.47
2023-04-09T03:17:45.247Z,11.47
2023-04-09T03:20:13.064Z,11.16
2023-04-09T03:22:41.162Z,10.94
2023-04-09T03:25:09.830Z,11.14
2023-04-09T03:27:38.871Z,11.28
2023-04-09T03:30:07.405Z,11.42
2023-04-09T03:32:35.156Z,11.51
2023-04-09T03:35:02.814Z,11.46
2023-04-09T03:37:30.567Z,11.35
2023-04-09T03:39:58.287Z,11.30
2023-04-09T03:42:25.964Z,11.11
2023-04-09T03:44:56.079Z,11.17
2023-04-09T03:47:23.832Z,11.29
2023-04-09T03:49:51.630Z,11.24
2023-04-09T03:52:19.348Z,11.33
2023-04-09T03:54:47.139Z,11.41
2023-04-09T03:57:14.830Z,11.32
2023-04-09T03:59:42.600Z,11.38
2023-04-09T04:02:11.746Z,11.42
2023-04-09T04:04:39.493Z,11.33
2023-04-09T04:07:07.788Z,11.42
2023-04-09T04:09:35.582Z,11.39
2023-04-09T04:12:03.366Z,11.51
2023-04-09T04:14:31.035Z,11.32
2023-04-09T04:16:58.743Z,11.29
2023-04-09T04:19:27.847Z,11.31
2023-04-09T04:21:55.569Z,11.21
2023-04-09T04:24:23.330Z,11.22
2023-04-09T04:26:51.069Z,11.09
2023-04-09T04:29:18.808Z,10.87
2023-04-09T04:31:46.621Z,10.97
2023-04-09T04:34:14.397Z,11.12
2023-04-09T04:36:43.527Z,11.22
2023-04-09T04:39:11.179Z,11.25
2023-04-09T04:41:38.894Z,11.10
2023-04-09T04:44:06.680Z,10.87
2023-04-09T04:46:34.374Z,10.44
2023-04-09T04:49:02.119Z,10.71
2023-04-09T04:51:32.268Z,11.03
2023-04-09T04:54:01.431Z,11.23
2023-04-09T04:56:29.141Z,11.29
2023-04-09T04:58:56.857Z,11.22
2023-04-09T05:01:24.665Z,11.15
2023-04-09T05:03:52.517Z,11.24
2023-04-09T05:06:20.269Z,11.29
2023-04-09T05:08:47.980Z,11.20
2023-04-09T05:11:16.996Z,10.72
2023-04-09T05:13:44.741Z,10.56
2023-04-09T05:16:17.646Z,10.52
2023-04-09T05:18:45.412Z,10.61
2023-04-09T05:21:13.079Z,10.35
2023-04-09T05:23:40.772Z,10.62
2023-04-09T05:26:08.408Z,10.72
2023-04-09T05:28:38.009Z,10.82
2023-04-09T05:31:07.450Z,10.87
2023-04-09T05:33:38.204Z,10.84
2023-04-09T05:36:06.674Z,10.80
2023-04-09T05:38:34.518Z,10.71
2023-04-09T05:41:02.207Z,10.69
2023-04-09T05:43:29.912Z,10.53
2023-04-09T05:45:59.033Z,10.46
2023-04-09T05:48:26.804Z,10.66
2023-04-09T05:50:55.864Z,10.68
2023-04-09T05:53:23.947Z,10.55
2023-04-09T05:55:51.658Z,10.40
2023-04-09T05:58:19.901Z,10.54
2023-04-09T06:00:47.655Z,10.29
2023-04-09T06:03:16.841Z,10.62
2023-04-09T06:05:46.653Z,10.70
2023-04-09T06:08:14.569Z,10.86
2023-04-09T06:10:42.279Z,9.97
2023-04-09T06:13:11.225Z,9.51
2023-04-09T06:15:39.073Z,9.83
2023-04-09T06:18:07.001Z,10.23
2023-04-09T06:21:14.978Z,10.42
2023-04-09T06:23:42.817Z,10.73
2023-04-09T06:26:10.617Z,10.59
2023-04-09T06:28:38.537Z,10.70
2023-04-09T06:31:06.408Z,10.37
2023-04-09T06:33:34.184Z,10.52
2023-04-09T06:36:01.904Z,11.11
2023-04-09T06:38:31.002Z,11.05
2023-04-09T06:40:58.725Z,11.00
2023-04-09T06:43:26.419Z,10.82
2023-04-09T06:45:54.063Z,11.00
2023-04-09T06:48:21.803Z,10.93
2023-04-09T06:50:49.494Z,10.58
2023-04-09T06:53:17.722Z,10.32
2023-04-09T06:55:46.935Z,10.46
2023-04-09T06:58:14.629Z,10.65
2023-04-09T07:00:42.318Z,10.43
2023-04-09T07:03:10.111Z,10.44
2023-04-09T07:05:37.884Z,11.05
2023-04-09T07:08:06.004Z,11.50
2023-04-09T07:10:33.815Z,11.41
2023-04-09T07:13:03.299Z,11.25
2023-04-09T07:15:31.121Z,11.44
2023-04-09T07:17:58.876Z,11.07
2023-04-09T07:20:26.664Z,11.03
2023-04-09T07:22:54.378Z,11.15
2023-04-09T07:25:22.374Z,11.07
2023-04-09T07:27:50.148Z,11.06
2023-04-09T07:30:19.313Z,11.22
2023-04-09T07:32:47.203Z,10.91
2023-04-09T07:35:14.905Z,11.29
2023-04-09T07:37:42.662Z,11.40
2023-04-09T07:40:10.844Z,11.59
2023-04-09T07:42:39.018Z,11.00
2023-04-09T07:45:08.109Z,11.13
2023-04-09T07:47:37.154Z,11.58
2023-04-09T07:50:05.369Z,12.17
2023-04-09T07:52:33.127Z,12.28
2023-04-09T07:55:00.879Z,11.30
2023-04-09T07:57:28.721Z,11.91
2023-04-09T07:59:56.737Z,12.01
2023-04-09T08:02:25.169Z,12.38
2023-04-09T08:04:54.411Z,12.45
2023-04-09T08:07:22.384Z,12.73
2023-04-09T08:09:50.616Z,12.30
2023-04-09T08:12:18.691Z,12.09
2023-04-09T08:14:46.442Z,12.76
2023-04-09T08:17:14.115Z,12.98
2023-04-09T08:19:42.216Z,12.85
2023-04-09T08:22:11.538Z,13.17
2023-04-09T08:24:40.248Z,12.12
2023-04-09T08:27:07.964Z,12.96
2023-04-09T08:29:35.618Z,13.29
2023-04-09T08:32:03.371Z,12.35
2023-04-09T08:34:31.093Z,13.19
2023-04-09T08:36:58.772Z,13.09
2023-04-09T08:39:27.932Z,12.21
2023-04-09T08:42:00.036Z,11.94
2023-04-09T08:44:27.764Z,11.99
2023-04-09T08:46:57.067Z,11.85
2023-04-09T08:49:26.048Z,12.82
2023-04-09T08:51:53.718Z,13.35
2023-04-09T08:54:21.382Z,13.66
2023-04-09T08:56:50.376Z,13.51
2023-04-09T08:59:19.278Z,13.98
2023-04-09T09:01:49.504Z,14.01
2023-04-09T09:04:17.424Z,14.02
2023-04-09T09:06:45.816Z,14.38
2023-04-09T09:09:14.650Z,14.42
2023-04-09T09:11:43.835Z,14.49
2023-04-09T09:14:13.920Z,14.28
2023-04-09T09:16:43.877Z,14.27
2023-04-09T09:19:12.805Z,14.47
2023-04-09T09:21:40.639Z,14.82
2023-04-09T09:24:18.149Z,14.70
2023-04-09T09:26:45.931Z,14.49
2023-04-09T09:29:15.499Z,14.63
2023-04-09T09:31:51.663Z,14.90
2023-04-09T09:34:20.420Z,14.93
2023-04-09T09:36:48.623Z,15.06
2023-04-09T09:39:17.842Z,15.18
2023-04-09T09:41:47.390Z,15.24
2023-04-09T09:44:33.591Z,15.26
2023-04-09T09:47:01.862Z,15.07
2023-04-09T09:49:29.592Z,15.29
2023-04-09T09:51:58.591Z,15.49
2023-04-09T09:54:27.131Z,15.31
2023-04-09T09:56:56.762Z,15.32
2023-04-09T09:59:26.117Z,15.17
2023-04-09T10:01:59.952Z,15.26
2023-04-09T10:04:30.347Z,15.28
2023-04-09T10:06:59.165Z,15.53
2023-04-09T10:09:28.466Z,15.71
2023-04-09T10:11:56.524Z,15.40
2023-04-09T10:14:24.385Z,16.08
2023-04-09T10:16:52.313Z,16.33
2023-04-09T10:19:22.308Z,16.60
2023-04-09T10:21:54.798Z,16.28
2023-04-09T10:24:23.142Z,16.01
2023-04-09T10:26:55.167Z,16.06
2023-04-09T10:29:52.818Z,16.02
2023-04-09T10:32:23.535Z,15.65
2023-04-09T10:34:52.162Z,16.04
2023-04-09T10:37:22.914Z,15.27
2023-04-09T10:39:52.491Z,15.54
2023-04-09T10:42:22.822Z,15.53
2023-04-09T10:45:06.579Z,16.21
2023-04-09T10:47:35.913Z,16.63
2023-04-09T10:50:18.093Z,17.16
2023-04-09T10:52:46.258Z,17.17
2023-04-09T10:55:32.314Z,17.04
2023-04-09T10:58:00.057Z,17.07
2023-04-09T11:00:29.233Z,17.57
2023-04-09T11:03:23.802Z,17.86
2023-04-09T11:05:53.975Z,17.76
2023-04-09T11:08:22.558Z,17.66
2023-04-09T11:10:52.387Z,16.94
2023-04-09T11:13:21.966Z,16.97
2023-04-09T11:15:51.553Z,16.93
2023-04-09T11:18:22.623Z,16.60
2023-04-09T11:20:50.318Z,16.67
2023-04-09T11:23:18.675Z,16.63
2023-04-09T11:25:50.122Z,16.65
2023-04-09T11:28:17.992Z,16.60
2023-04-09T11:30:46.783Z,16.83
2023-04-09T11:33:17.497Z,16.70
2023-04-09T11:35:46.913Z,16.75
2023-04-09T11:38:14.598Z,17.00
2023-04-09T11:40:48.235Z,16.11
2023-04-09T11:43:17.782Z,16.78
2023-04-09T11:45:47.527Z,17.15
2023-04-09T11:48:18.106Z,16.73
2023-04-09T11:50:45.861Z,16.59
2023-04-09T11:53:18.016Z,16.73
2023-04-09T11:55:48.374Z,17.18
2023-04-09T11:58:16.611Z,17.42
2023-04-09T12:00:45.320Z,17.07
2023-04-09T12:03:13.594Z,17.13
2023-04-09T12:05:50.607Z,17.50
2023-04-09T12:08:24.175Z,17.21
2023-04-09T12:10:53.628Z,17.41
2023-04-09T12:13:21.862Z,17.09
2023-04-09T12:15:50.844Z,17.28
2023-04-09T12:18:18.585Z,17.47
2023-04-09T12:20:49.721Z,17.70
2023-04-09T12:23:17.590Z,17.83
2023-04-09T12:25:47.634Z,17.22
2023-04-09T12:28:18.489Z,17.04
2023-04-09T12:30:46.834Z,17.32
2023-04-09T12:33:14.580Z,17.72
2023-04-09T12:35:42.288Z,17.94
2023-04-09T12:38:11.446Z,17.95
2023-04-09T12:40:39.462Z,17.39
2023-04-09T12:43:07.231Z,17.35
2023-04-09T12:45:35.009Z,17.43
2023-04-09T12:48:03.034Z,17.66
2023-04-09T12:50:30.794Z,17.84
2023-04-09T12:52:58.553Z,17.28
2023-04-09T12:55:27.918Z,17.84
2023-04-09T12:57:55.671Z,18.21
2023-04-09T13:00:23.342Z,17.93
2023-04-09T13:02:52.633Z,17.81
2023-04-09T13:05:20.722Z,18.12
2023-04-09T13:07:48.523Z,17.78
2023-04-09T13:10:16.360Z,17.74
2023-04-09T13:12:45.461Z,17.60
2023-04-09T13:15:13.185Z,17.48
2023-04-09T13:17:40.945Z,17.38
2023-04-09T13:20:09.943Z,17.32
2023-04-09T13:22:37.699Z,17.99
2023-04-09T13:25:06.229Z,18.13
2023-04-09T13:27:33.920Z,18.38
2023-04-09T13:30:02.993Z,18.50
2023-04-09T13:32:30.691Z,18.16
2023-04-09T13:34:58.782Z,18.07
2023-04-09T13:37:27.286Z,17.77
2023-04-09T13:39:54.961Z,17.56
2023-04-09T13:42:22.755Z,17.47
2023-04-09T13:44:50.670Z,17.50
2023-04-09T13:47:19.754Z,17.92
2023-04-09T13:49:47.452Z,17.39
2023-04-09T13:52:15.463Z,17.97
2023-04-09T13:54:43.137Z,18.49
2023-04-09T13:57:11.288Z,19.09
2023-04-09T13:59:39.128Z,19.21
2023-04-09T14:02:06.944Z,19.19
2023-04-09T14:04:36.131Z,19.12
2023-04-09T14:07:03.906Z,18.81
2023-04-09T14:09:31.964Z,18.61
2023-04-09T14:11:59.624Z,18.74
2023-04-09T14:14:27.618Z,18.59
2023-04-09T14:16:55.395Z,18.59
2023-04-09T14:19:24.091Z,18.56
2023-04-09T14:21:54.121Z,18.44
2023-04-09T14:24:23.175Z,18.42
2023-04-09T14:26:53.225Z,18.70
2023-04-09T14:29:22.105Z,18.54
2023-04-09T14:31:49.915Z,18.42
2023-04-09T14:34:18.020Z,18.24
2023-04-09T14:36:45.861Z,18.24
2023-04-09T14:39:14.878Z,17.92
2023-04-09T14:41:42.612Z,17.96
2023-04-09T14:44:10.417Z,17.59
2023-04-09T14:46:38.175Z,17.62
2023-04-09T14:49:05.903Z,17.42
2023-04-09T14:51:34.150Z,17.41
2023-04-09T14:54:02.190Z,17.53
2023-04-09T14:56:31.289Z,17.39
2023-04-09T14:58:59.036Z,17.14
2023-04-09T15:01:27.743Z,16.99
2023-04-09T15:03:55.678Z,16.98
2023-04-09T15:06:23.806Z,17.05
2023-04-09T15:08:51.759Z,17.34
2023-04-09T15:11:22.829Z,17.32
2023-04-09T15:13:52.513Z,17.37
2023-04-09T15:16:25.025Z,17.79
2023-04-09T15:18:55.686Z,18.12
2023-04-09T15:21:23.613Z,17.99
2023-04-09T15:23:51.765Z,17.85
2023-04-09T15:26:19.632Z,17.54
2023-04-09T15:28:47.580Z,17.50
2023-04-09T15:31:16.948Z,17.48
2023-04-09T15:33:44.779Z,17.31
2023-04-09T15:36:12.703Z,17.37
2023-04-09T15:38:40.455Z,17.73
2023-04-09T15:41:08.205Z,17.38
2023-04-09T15:43:36.150Z,17.88
2023-04-09T15:46:08.793Z,18.05
2023-04-09T15:48:37.910Z,17.68
2023-04-09T15:51:06.135Z,17.78
2023-04-09T15:53:33.845Z,17.88
2023-04-09T15:56:01.783Z,17.82
2023-04-09T15:58:29.794Z,17.79
2023-04-09T16:00:57.600Z,17.68
2023-04-09T16:03:25.633Z,17.53
2023-04-09T16:05:54.671Z,17.36
2023-04-09T16:08:22.455Z,17.35
2023-04-09T16:10:50.251Z,17.59
2023-04-09T16:13:17.975Z,17.53
2023-04-09T16:15:46.790Z,17.21
2023-04-09T16:18:14.503Z,17.40
2023-04-09T16:20:42.281Z,17.38
2023-04-09T16:23:11.379Z,17.35
2023-04-09T16:25:39.091Z,17.34
2023-04-09T16:28:06.874Z,17.26
2023-04-09T16:30:34.571Z,17.36
2023-04-09T16:33:02.323Z,17.31
2023-04-09T16:35:30.414Z,17.30
2023-04-09T16:37:58.046Z,17.27
2023-04-09T16:40:27.102Z,16.85
2023-04-09T16:42:54.764Z,16.55
2023-04-09T16:45:22.563Z,16.77
2023-04-09T16:47:51.924Z,17.14
2023-04-09T16:50:21.364Z,17.32
2023-04-09T16:52:49.389Z,17.40
2023-04-09T16:55:17.444Z,17.06
2023-04-09T16:57:46.519Z,16.79
2023-04-09T17:00:17.414Z,16.53
2023-04-09T17:02:45.861Z,16.46
2023-04-09T17:05:13.714Z,16.53
2023-04-09T17:07:41.355Z,16.34
2023-04-09T17:10:10.055Z,16.05
2023-04-09T17:12:38.130Z,16.15
2023-04-09T17:15:08.599Z,16.10
2023-04-09T17:17:36.341Z,16.16
2023-04-09T17:20:04.520Z,15.93
2023-04-09T17:22:32.353Z,15.84
2023-04-09T17:25:00.014Z,15.80
2023-04-09T17:27:27.686Z,15.77
2023-04-09T17:29:55.504Z,15.90
2023-04-09T17:32:24.630Z,15.83
2023-04-09T17:34:52.510Z,15.68
2023-04-09T17:37:20.499Z,15.75
2023-04-09T17:39:48.198Z,15.62
2023-04-09T17:42:16.394Z,15.47
2023-04-09T17:44:44.035Z,15.47
2023-04-09T17:47:12.491Z,15.34
2023-04-09T17:49:42.490Z,15.18
2023-04-09T17:52:10.227Z,15.08
2023-04-09T17:54:38.645Z,15.06
2023-04-09T17:57:07.307Z,14.83
2023-04-09T17:59:35.376Z,14.73
2023-04-09T18:02:03.571Z,14.69
2023-04-09T18:04:31.580Z,14.61
2023-04-09T18:07:00.787Z,14.56
2023-04-09T18:09:28.458Z,14.44
2023-04-09T18:11:56.645Z,14.27
2023-04-09T18:14:24.713Z,14.17
2023-04-09T18:16:52.394Z,14.11
2023-04-09T18:19:20.067Z,14.09
2023-04-09T18:21:47.753Z,13.88
2023-04-09T18:24:16.802Z,13.80
2023-04-09T18:26:44.458Z,13.85
2023-04-09T18:29:12.696Z,13.88
2023-04-09T18:31:40.589Z,13.76
2023-04-09T18:34:08.357Z,13.65
2023-04-09T18:36:36.107Z,13.68
2023-04-09T18:39:04.881Z,13.61
2023-04-09T18:41:33.993Z,13.60
2023-04-09T18:44:01.885Z,13.50
2023-04-09T18:46:29.641Z,13.51
2023-04-09T18:48:57.656Z,13.42
2023-04-09T18:51:26.226Z,13.28
2023-04-09T18:53:54.809Z,13.27
2023-04-09T18:56:22.641Z,13.16
2023-04-09T18:58:52.450Z,13.26
2023-04-09T19:01:20.721Z,13.22
2023-04-09T19:03:48.739Z,13.21
2023-04-09T19:06:18.037Z,13.17
2023-04-09T19:08:46.156Z,13.05
2023-04-09T19:11:14.431Z,12.95
2023-04-09T19:13:42.110Z,12.93
2023-04-09T19:16:11.375Z,12.87
2023-04-09T19:18:39.098Z,12.70
2023-04-09T19:21:08.020Z,12.70
2023-04-09T19:23:35.708Z,12.72
2023-04-09T19:26:04.064Z,12.50
2023-04-09T19:28:31.803Z,12.44
2023-04-09T19:31:02.097Z,12.58
2023-04-09T19:33:32.500Z,12.55
2023-04-09T19:36:00.424Z,12.46
2023-04-09T19:38:28.192Z,12.54
2023-04-09T19:40:55.918Z,12.41
2023-04-09T19:43:23.775Z,12.52
2023-04-09T19:45:51.585Z,12.32
2023-04-09T19:48:19.312Z,12.24
2023-04-09T19:50:48.937Z,12.26
2023-04-09T19:53:16.630Z,12.17
2023-04-09T19:55:44.638Z,12.23
2023-04-09T19:58:12.434Z,12.20
2023-04-09T20:00:40.290Z,12.16
2023-04-09T20:03:08.218Z,12.13
2023-04-09T20:05:36.057Z,12.15
2023-04-09T20:08:05.530Z,12.25
2023-04-09T20:10:33.201Z,12.50
2023-04-09T20:13:01.639Z,12.35
2023-04-09T20:15:29.516Z,12.46
2023-04-09T20:17:57.386Z,12.45
2023-04-09T20:20:25.120Z,12.46
2023-04-09T20:22:56.139Z,12.35
2023-04-09T20:25:26.133Z,12.43
2023-04-09T20:27:54.455Z,12.37
2023-04-09T20:30:22.614Z,12.25
2023-04-09T20:32:50.531Z,12.01
2023-04-09T20:35:18.357Z,12.13
2023-04-09T20:37:48.403Z,12.04
2023-04-09T20:40:16.381Z,12.13
2023-04-09T20:42:45.480Z,12.17
2023-04-09T20:45:13.182Z,12.12
2023-04-09T20:47:40.956Z,11.97
2023-04-09T20:50:09.413Z,11.88
2023-04-09T20:52:37.642Z,11.89
2023-04-09T20:55:06.351Z,11.88
2023-04-09T20:57:34.428Z,11.90
2023-04-09T21:00:04.248Z,11.89
2023-04-09T21:02:32.228Z,11.95
2023-04-09T21:05:05.455Z,11.96
2023-04-09T21:07:42.989Z,11.78
2023-04-09T21:10:11.104Z,11.74
2023-04-09T21:12:38.820Z,11.80
2023-04-09T21:15:09.477Z,11.63
2023-04-09T21:17:37.204Z,11.55
2023-04-09T21:20:05.778Z,11.39
2023-04-09T21:22:35.223Z,11.43
2023-04-09T21:25:04.140Z,11.38
2023-04-09T21:27:31.836Z,11.30
2023-04-09T21:29:59.769Z,11.27
2023-04-09T21:32:28.868Z,11.17
2023-04-09T21:34:56.622Z,11.02
2023-04-09T21:37:25.047Z,11.00
2023-04-09T21:39:53.137Z,11.01
2023-04-09T21:42:21.231Z,10.90
2023-04-09T21:44:48.966Z,10.92
2023-04-09T21:47:16.758Z,10.94
2023-04-09T21:49:46.480Z,11.00
2023-04-09T21:52:15.160Z,10.80
2023-04-09T21:54:43.125Z,10.91
2023-04-09T21:57:10.933Z,10.92
2023-04-09T21:59:41.180Z,10.87
2023-04-09T22:02:09.531Z,10.83
2023-04-09T22:04:37.522Z,10.84
2023-04-09T22:07:06.719Z,10.71
2023-04-09T22:09:34.460Z,10.74
2023-04-09T22:12:02.746Z,10.63
2023-04-09T22:14:32.373Z,10.69
2023-04-09T22:17:01.645Z,10.58
2023-04-09T22:19:31.259Z,10.52
2023-04-09T22:21:59.318Z,10.53
2023-04-09T22:24:30.098Z,10.63
2023-04-09T22:26:58.927Z,10.61
2023-04-09T22:29:27.763Z,10.49
2023-04-09T22:31:55.731Z,10.45
2023-04-09T22:34:23.419Z,10.60
2023-04-09T22:36:51.553Z,10.57
2023-04-09T22:39:19.363Z,10.48
2023-04-09T22:41:48.439Z,10.51
2023-04-09T22:44:16.158Z,10.49
2023-04-09T22:46:43.938Z,10.56
2023-04-09T22:49:12.347Z,10.44
2023-04-09T22:51:41.785Z,10.45
2023-04-09T22:54:09.977Z,10.49
2023-04-09T22:56:37.875Z,10.52
2023-04-09T22:59:07.161Z,10.45
2023-04-09T23:01:35.093Z,10.42
2023-04-09T23:04:02.818Z,10.39
2023-04-09T23:06:31.263Z,10.38
2023-04-09T23:08:59.870Z,10.37
2023-04-09T23:11:28.220Z,10.31
2023-04-09T23:13:56.011Z,10.28
2023-04-09T23:16:25.139Z,10.33
2023-04-09T23:18:53.159Z,10.36
2023-04-09T23:21:21.059Z,10.32
2023-04-09T23:23:48.958Z,10.28
2023-04-09T23:26:16.677Z,10.23
2023-04-09T23:28:44.382Z,10.27
2023-04-09T23:31:12.198Z,10.18
2023-04-09T23:33:41.286Z,10.14
2023-04-09T23:36:09.667Z,9.97
2023-04-09T23:38:37.406Z,10.00
2023-04-09T23:41:05.586Z,9.99
2023-04-09T23:43:33.764Z,10.00
2023-04-09T23:46:01.492Z,9.93
2023-04-09T23:48:29.140Z,9.97
2023-04-09T23:50:58.170Z,9.95
2023-04-09T23:53:26.308Z,10.03
2023-04-09T23:55:53.978Z,9.98
2023-04-09T23:58:22.399Z,9.90
